Weather observations for the past three days for
Salina, Salina Municipal Airport
Imperial (Metric)
Date Time (cdt) Wind (mph) Vis. (mi.) Weather Sky Cond. Temperature (ºF) Relative Humidity Wind Chill (°F) Heat Index (°F) Pressure Precipitation (in)
Air Dwpt 6 hour altimeter (in) sea level (mb) 1 hr 3 hr 6 hr
Max. Min.
08 10:53 SW 12 10.00 Partly Cloudy SCT120 64.9 46 51% 29.8 1008.4
08 09:53 SW 13 10.00 Mostly Cloudy BKN110 63 45 52% 29.81 1008.6
08 08:53 SW 13 10.00 A Few Clouds FEW120 61 44.1 54% 29.81 1008.6
08 07:53 SW 9 10.00 Fair CLR 60.1 41 50% 29.8 1008.2
08 06:53 SW 15 10.00 Fair CLR 59 39.9 62.1 57.9 49% 29.78 1007.6
08 05:53 S 15 10.00 Fair CLR 57.9 39.9 51% 29.78 1007.4
08 04:53 SW 8 10.00 Fair CLR 60.1 39.9 48% 29.79 1007.8
08 03:53 S 8 10.00 A Few Clouds FEW120 60.1 41 50% 29.79 1007.9
08 02:53 SW 9 10.00 A Few Clouds FEW120 61 42.1 50% 29.8 1008.0
08 01:53 S 13 10.00 A Few Clouds FEW120 62.1 42.1 48% 29.8 1008.1
08 00:53 S 7 10.00 Mostly Cloudy BKN120 63 42.1 77 61 47% 29.84 1009.6
07 23:53 S 8 10.00 Mostly Cloudy FEW075 SCT095 BKN110 64.9 39.9 40% 29.83 1009.3
07 22:53 S 8 10.00 Mostly Cloudy BKN120 62.1 46 56% 29.82 1009.0
07 21:53 SE 3 10.00 Fair CLR 66.9 45 45% 29.81 1008.8
07 20:53 Calm 10.00 Fair CLR 66.9 46 47% 29.79 1008.2
07 19:53 S 5 10.00 Fair CLR 73 48.9 43% 29.78 1007.8
07 18:53 SW 5 10.00 Fair CLR 77 39.9 81 70 26% 77 29.78 1007.9
07 17:53 W 12 10.00 Fair CLR 79 36 21% 78 29.79 1008.2
07 16:53 W 12 G 22 10.00 Fair CLR 79 34 20% 78 29.8 1008.7
07 15:53 SW 13 G 28 10.00 Fair CLR 78.1 34 20% 77 29.83 1009.5
07 14:53 W 17 G 30 10.00 Fair CLR 77 34 21% 77 29.86 1010.4
07 13:53 SW 20 G 29 10.00 Fair CLR 73.9 37 26% 29.89 1011.4
07 12:53 SW 17 G 26 10.00 Fair CLR 70 37 70 44.1 30% 29.92 1012.8
07 11:53 SW 16 G 25 10.00 Fair CLR 66 39 37% 29.96 1014.0
07 10:53 SW 20 10.00 Fair CLR 62.1 39.9 44% 29.98 1015.1
07 09:53 SW 15 G 29 10.00 Fair CLR 57 39 51% 30.01 1015.9
07 08:53 SW 15 10.00 Fair CLR 52 39.9 64% 30.02 1016.7
07 07:53 SW 10 10.00 Fair CLR 48 41 77% 44 30.03 1016.7
07 06:53 SW 10 10.00 Fair CLR 44.1 39.9 48.9 43 85% 39 30.02 1016.7
07 05:53 SW 8 10.00 Fair CLR 44.1 39 83% 40 30.03 1017.0
07 04:53 SW 8 10.00 Fair CLR 44.1 39 83% 40 30.04 1017.4
07 03:53 SW 8 10.00 Fair CLR 44.1 39.9 85% 40 30.05 1017.5
07 02:53 W 8 10.00 Fair CLR 46 41 83% 42 30.07 1018.3
07 01:53 W 9 10.00 Fair CLR 48 41 77% 44 30.09 1018.7
07 00:53 W 9 10.00 Fair CLR 48.9 41 57.9 48.9 74% 45 30.09 1018.9
06 23:53 SW 7 10.00 A Few Clouds FEW120 51.1 39.9 66% 30.1 1019.2
06 22:53 W 6 10.00 Fair CLR 52 39 61% 30.1 1019.1
06 21:53 SW 6 10.00 Fair CLR 52 39.9 64% 30.09 1019.0
06 20:53 W 6 10.00 Mostly Cloudy BKN075 54 37.9 55% 30.09 1018.9
06 19:53 W 6 10.00 A Few Clouds FEW075 55 37.9 53% 30.07 1018.3
06 18:53 NW 5 10.00 Mostly Cloudy BKN070 57.9 35.1 59 55 42% 30.08 1018.4
06 17:53 NW 6 10.00 Overcast OVC075 57.9 35.1 42% 30.08 1018.5
06 16:53 NW 6 10.00 Mostly Cloudy BKN065 57.9 34 41% 30.08 1018.6
06 15:53 N 8 10.00 Mostly Cloudy BKN060 57 34 42% 30.1 1019.2
06 14:53 W 7 10.00 Partly Cloudy SCT065 57.9 30.9 36% 30.12 1019.8
06 13:53 NE 8 10.00 Partly Cloudy SCT070 57.9 33.1 39% 30.13 1020.2
06 12:53 Vrbl 5 10.00 Fair CLR 55 32 55 46 42% 30.13 1020.4
06 11:53 N 5 10.00 Partly Cloudy SCT070 54 33.1 45% 30.15 1020.9
06 10:53 N 12 10.00 Mostly Cloudy FEW020 SCT027 BKN070 51.1 43 74% 30.14 1020.9
06 09:53 NW 6 10.00 Overcast BKN011 OVC080 50 42.1 74% 48 30.14 1020.8
06 08:53 W 5 10.00 Overcast BKN080 OVC095 48 43 83% 47 30.13 1020.4
06 07:53 NW 5 10.00 Overcast OVC080 46 44.1 93% 44 30.11 1019.8
06 06:53 Calm 10.00 Overcast BKN037 OVC095 46 44.1 46.9 45 93% 30.07 1018.5 0.05
06 05:53 NE 5 10.00 Overcast OVC033 46 43 89% 44 30.05 1017.7
06 04:53 N 3 10.00 Overcast SCT033 BKN075 OVC100 45 43 93% 30.05 1017.7 0.03
06 03:53 NW 6 10.00 Light Rain OVC042 46 45 96% 44 30.05 1017.8 0.01 0.02
06 02:53 W 5 10.00 Light Rain BKN046 OVC060 46 44.1 93% 44 30.04 1017.3 0.01
06 01:53 W 7 10.00 Light Rain BKN055 BKN070 OVC085 46.9 44.1 90% 44 30.04 1017.4
06 00:53 W 3 10.00 Overcast OVC080 46.9 44.1 54 46 90% 30 1016.0 0.12
05 23:53 Calm 10.00 Overcast FEW048 OVC085 46.9 43 86% 30 1016.0
05 22:53 Calm 10.00 Overcast SCT045 BKN100 OVC120 46.9 43 86% 30 1016.0 0.01
05 21:53 S 7 8.00 Light Rain OVC038 46.9 43 86% 44 30 1016.1 0.08 0.11
05 20:53 NW 6 9.00 Light Rain OVC041 48.9 41 74% 47 29.98 1015.3 0.03
05 19:53 N 9 10.00 Overcast SCT060 OVC075 53.1 35.1 51% 29.93 1013.5
05 18:53 N 10 10.00 Overcast OVC075 53.1 37.9 55 51.1 57% 29.93 1013.3
05 17:53 NE 9 10.00 Overcast OVC075 53.1 37 55% 29.91 1012.8
05 16:53 N 13 10.00 Overcast OVC075 54 37 53% 29.91 1012.8
05 15:53 N 15 10.00 Overcast FEW029 OVC075 53.1 41 64% 29.94 1013.7
05 14:53 N 14 10.00 Overcast FEW025 OVC070 53.1 41 64% 29.94 1013.6
05 13:53 NE 9 G 23 10.00 Overcast FEW036 OVC070 53.1 37.9 57% 29.95 1013.9
05 12:53 E 14 10.00 Overcast FEW015 OVC065 51.1 36 52 48.9 56% 29.95 1014.0
05 11:53 NE 15 10.00 Overcast OVC060 51.1 37.9 61% 29.95 1013.8
Date Time (cdt) Wind (mph) Vis. (mi.) Weather Sky Cond. Air Dwpt Max. Min. Relative Humidity Wind Chill (°F) Heat Index (°F) altimeter (in) sea level (mb) 1 hr 3 hr 6 hr
6 hour
Temperature (ºF) Pressure Precipitation (in)